Time;durP1;ratioP1;P1;durP2;ratioP2;P2;SDS_P1;SDS_P2;PMS_P1;PMS_P2;Temp;Humidity;BMP_temperature;BMP_pressure;BME280_temperature;BME280_humidity;BME280_pressure;Samples;Min_cycle;Max_cycle;Signal;HPM_P1;HPM_P2
2023/12/26 00:02:28;;;;;;;0.00;0.00;;;;;;;12.37;72.32;99797.78;10286840;28;20532;-83
2023/12/26 00:07:29;;;;;;;0.00;0.00;;;;;;;12.32;72.50;99794.84;10291110;28;20129;-82
2023/12/26 00:12:31;;;;;;;0.10;0.00;;;;;;;12.38;72.49;99788.69;10285395;28;20085;-82
2023/12/26 00:17:32;;;;;;;0.00;0.00;;;;;;;12.37;72.50;99792.41;10287953;28;20078;-82
2023/12/26 00:22:37;;;;;;;0.32;0.00;;;;;;;12.39;72.45;99790.31;10289045;28;20601;-81
2023/12/26 00:27:39;;;;;;;0.00;0.00;;;;;;;12.40;72.27;99791.16;10294374;28;20064;-81
2023/12/26 00:32:41;;;;;;;0.00;0.00;;;;;;;12.40;71.91;99778.53;10289897;28;20125;-82
2023/12/26 00:37:43;;;;;;;1.60;0.00;;;;;;;12.50;71.85;99768.19;10288753;28;20472;-82
2023/12/26 00:42:44;;;;;;;0.00;0.00;;;;;;;12.43;72.04;99769.19;10289117;28;20043;-82
2023/12/26 00:47:46;;;;;;;0.17;0.10;;;;;;;12.41;72.24;99768.56;10289551;28;20517;-81
2023/12/26 00:52:47;;;;;;;0.05;0.05;;;;;;;12.47;71.80;99759.66;10283147;28;20109;-82
2023/12/26 00:57:49;;;;;;;0.00;0.00;;;;;;;12.45;71.55;99767.94;10288873;28;20049;-82
2023/12/26 01:02:51;;;;;;;0.03;0.00;;;;;;;12.42;71.54;99757.59;10272595;28;20506;-82
2023/12/26 01:07:52;;;;;;;0.00;0.00;;;;;;;12.43;72.04;99772.72;10281656;28;20058;-83
2023/12/26 01:12:54;;;;;;;0.00;0.00;;;;;;;12.40;71.82;99765.03;10284442;28;20042;-82
2023/12/26 01:17:56;;;;;;;0.10;0.00;;;;;;;12.41;71.92;99768.56;10293107;28;20047;-83
2023/12/26 01:22:58;;;;;;;2.45;0.00;;;;;;;12.42;71.99;99762.97;10287521;28;20053;-82
2023/12/26 01:28:00;;;;;;;0.00;0.00;;;;;;;12.41;71.79;99765.88;10275139;28;20054;-82
2023/12/26 01:33:01;;;;;;;0.20;0.00;;;;;;;12.33;72.35;99774.97;10280706;28;20122;-83
2023/12/26 01:38:03;;;;;;;0.40;0.08;;;;;;;12.42;72.05;99779.16;10286878;28;20053;-83
2023/12/26 01:43:05;;;;;;;0.00;0.00;;;;;;;12.39;71.59;99778.72;10292294;28;20034;-83
2023/12/26 01:48:09;;;;;;;0.17;0.00;;;;;;;12.27;71.93;99794.63;10294413;28;20051;-82
2023/12/26 01:53:14;;;;;;;0.10;0.00;;;;;;;12.33;71.89;99793.00;10275511;28;20046;-83
2023/12/26 01:58:17;;;;;;;0.00;0.00;;;;;;;12.30;71.70;99805.00;10264146;28;20051;-83
2023/12/26 02:03:18;;;;;;;0.00;0.00;;;;;;;12.21;72.22;99817.00;10288130;28;20051;-83
2023/12/26 02:08:20;;;;;;;0.82;0.00;;;;;;;12.12;71.97;99810.94;10281549;28;20670;-83
2023/12/26 02:13:22;;;;;;;0.00;0.00;;;;;;;11.90;72.69;99818.28;10287966;28;20185;-85
2023/12/26 02:18:24;;;;;;;0.82;0.00;;;;;;;11.54;73.95;99816.53;10290994;28;20054;-85
2023/12/26 02:23:29;;;;;;;0.85;0.00;;;;;;;11.34;74.55;99829.84;10273196;28;20063;-84
2023/12/26 02:28:36;;;;;;;0.00;0.00;;;;;;;11.25;74.77;99825.63;10284716;28;20142;-83
2023/12/26 02:33:38;;;;;;;0.30;0.00;;;;;;;11.25;74.40;99821.06;10274857;28;20043;-83
2023/12/26 02:38:40;;;;;;;0.03;0.00;;;;;;;11.29;74.58;99821.50;10296850;28;20165;-84
2023/12/26 02:43:41;;;;;;;0.20;0.00;;;;;;;11.27;74.58;99832.47;10289021;28;20051;-83
2023/12/26 02:48:43;;;;;;;0.00;0.00;;;;;;;11.35;75.02;99839.56;10285980;28;20050;-83
2023/12/26 02:53:44;;;;;;;0.40;0.00;;;;;;;11.47;74.63;99845.25;10295489;28;20505;-83
2023/12/26 02:58:46;;;;;;;0.10;0.00;;;;;;;11.57;74.20;99839.53;10294010;28;20046;-84
2023/12/26 03:03:48;;;;;;;0.52;0.00;;;;;;;11.62;74.08;99807.50;10289434;28;20070;-84
2023/12/26 03:08:49;;;;;;;0.50;0.10;;;;;;;11.67;73.36;99807.72;10282028;28;20047;-84
2023/12/26 03:13:51;;;;;;;1.50;0.10;;;;;;;11.73;73.30;99793.50;10290172;28;20050;-85
2023/12/26 03:18:53;;;;;;;1.67;0.20;;;;;;;11.75;73.37;99804.03;10297424;28;20054;-85
2023/12/26 03:23:55;;;;;;;1.65;0.20;;;;;;;11.79;72.71;99803.47;10299294;28;20102;-82
2023/12/26 03:28:56;;;;;;;2.70;0.22;;;;;;;11.85;72.52;99796.47;10295791;28;20051;-82
2023/12/26 03:33:58;;;;;;;1.27;0.20;;;;;;;11.92;71.62;99794.66;10286129;28;20516;-82
2023/12/26 03:38:59;;;;;;;1.30;0.20;;;;;;;11.97;71.57;99794.09;10305902;28;20153;-82
2023/12/26 03:44:01;;;;;;;1.88;0.20;;;;;;;12.04;71.22;99803.00;10288487;28;20077;-82
2023/12/26 03:49:03;;;;;;;2.95;0.30;;;;;;;12.00;70.68;99793.66;10300126;28;20060;-82
2023/12/26 03:54:05;;;;;;;1.73;0.50;;;;;;;11.98;70.34;99806.50;10295324;28;20097;-82
2023/12/26 03:59:07;;;;;;;3.13;0.20;;;;;;;11.97;70.50;99803.00;10302540;28;20078;-82
2023/12/26 04:04:09;;;;;;;4.18;0.30;;;;;;;11.92;70.17;99800.03;10285375;28;20102;-83
2023/12/26 04:09:12;;;;;;;4.40;0.40;;;;;;;11.99;69.86;99803.63;10296172;28;20043;-82
2023/12/26 04:14:14;;;;;;;3.17;0.75;;;;;;;12.01;69.49;99801.56;10292189;28;20042;-83
2023/12/26 04:19:15;;;;;;;4.45;0.40;;;;;;;12.02;69.58;99794.31;10291784;28;20145;-83
2023/12/26 04:24:17;;;;;;;6.03;0.47;;;;;;;12.00;69.30;99796.38;10284733;28;20046;-83
2023/12/26 04:29:18;;;;;;;4.30;0.60;;;;;;;11.98;69.50;99799.25;10290774;28;20046;-83
2023/12/26 04:34:20;;;;;;;2.83;0.30;;;;;;;12.01;69.18;99806.94;10290766;28;20046;-83
2023/12/26 04:39:23;;;;;;;2.97;0.30;;;;;;;12.01;68.95;99806.94;10285769;28;20051;-83
2023/12/26 04:44:24;;;;;;;4.57;0.50;;;;;;;11.99;68.87;99810.88;10280104;28;20125;-82
2023/12/26 04:49:26;;;;;;;3.95;0.30;;;;;;;11.89;69.06;99809.38;10270375;28;20473;-83
2023/12/26 04:54:28;;;;;;;4.97;0.63;;;;;;;11.91;68.83;99814.56;10284449;28;20051;-83
2023/12/26 04:59:29;;;;;;;3.25;0.43;;;;;;;11.90;68.95;99827.16;10281208;28;20074;-83
2023/12/26 05:04:32;;;;;;;4.78;0.88;;;;;;;11.96;68.99;99832.81;10283173;28;20089;-83
2023/12/26 05:09:35;;;;;;;2.85;0.77;;;;;;;11.90;68.64;99840.63;10287971;28;20054;-83
2023/12/26 05:14:36;;;;;;;2.58;0.30;;;;;;;11.95;68.50;99848.16;10295952;28;20102;-82
2023/12/26 05:19:39;;;;;;;3.78;0.77;;;;;;;11.95;69.03;99856.22;10287012;28;20057;-82
2023/12/26 05:24:41;;;;;;;5.05;0.43;;;;;;;11.84;68.87;99851.34;10290974;28;20050;-82
2023/12/26 05:29:52;;;;;;;5.90;0.50;;;;;;;11.76;69.45;99854.19;10282975;28;20061;-81
2023/12/26 05:34:55;;;;;;;2.40;0.30;;;;;;;11.75;69.40;99869.53;10279146;28;20042;-82
2023/12/26 05:39:56;;;;;;;4.35;0.40;;;;;;;11.73;69.31;99876.13;10275482;28;20046;-82
2023/12/26 05:44:58;;;;;;;5.15;0.50;;;;;;;11.76;69.74;99865.78;10279055;28;20043;-81
2023/12/26 05:50:00;;;;;;;7.68;1.80;;;;;;;11.69;69.48;99881.09;10287689;28;20059;-81
2023/12/26 05:55:02;;;;;;;5.38;0.60;;;;;;;11.72;69.96;99886.06;10274488;28;20108;-82
2023/12/26 06:00:05;;;;;;;7.18;1.05;;;;;;;11.76;69.44;99878.44;10275460;28;20046;-81
2023/12/26 06:05:07;;;;;;;4.75;0.50;;;;;;;11.67;70.06;99896.56;10295497;28;20051;-81
2023/12/26 06:10:09;;;;;;;3.70;0.35;;;;;;;11.51;70.52;99905.75;10302026;28;20112;-81
2023/12/26 06:15:10;;;;;;;7.53;0.60;;;;;;;11.41;71.02;99921.38;10283099;28;20134;-82
2023/12/26 06:20:14;;;;;;;4.15;1.35;;;;;;;11.44;70.52;99926.41;10293964;28;20053;-81
2023/12/26 06:25:16;;;;;;;4.60;0.47;;;;;;;11.39;70.69;99929.66;10283096;28;20118;-81
2023/12/26 06:30:18;;;;;;;4.82;0.43;;;;;;;11.38;71.44;99954.91;10289901;28;20043;-81
2023/12/26 06:35:19;;;;;;;5.78;0.63;;;;;;;11.46;70.93;99952.09;10295957;28;20059;-81
2023/12/26 06:40:21;;;;;;;5.93;0.50;;;;;;;11.52;71.23;99972.03;10296252;28;20054;-81
2023/12/26 06:45:22;;;;;;;8.60;2.35;;;;;;;11.55;70.93;99971.63;10287171;28;20043;-81
2023/12/26 06:50:24;;;;;;;1.05;0.20;;;;;;;11.54;71.08;99977.22;10275197;28;20134;-81
2023/12/26 06:55:26;;;;;;;1.65;0.40;;;;;;;11.51;71.34;99981.13;10284984;28;20106;-80
2023/12/26 07:00:27;;;;;;;9.90;1.10;;;;;;;11.55;71.16;99982.41;10291448;28;20118;-81
2023/12/26 07:05:29;;;;;;;6.88;0.70;;;;;;;11.58;70.91;99990.09;10280549;28;20035;-81
2023/12/26 07:10:31;;;;;;;5.57;1.17;;;;;;;11.60;71.21;100006.91;10289460;28;20066;-80
2023/12/26 07:15:32;;;;;;;7.00;0.50;;;;;;;11.62;71.33;100020.16;10291939;28;20047;-81
2023/12/26 07:20:34;;;;;;;8.02;1.45;;;;;;;11.57;71.16;100026.13;10291193;28;20134;-81
2023/12/26 07:25:37;;;;;;;3.83;0.60;;;;;;;11.63;71.02;100035.28;10285312;28;20055;-83
2023/12/26 07:30:39;;;;;;;5.22;0.60;;;;;;;11.75;70.58;100046.38;10299871;28;20125;-84
2023/12/26 07:35:40;;;;;;;3.42;1.13;;;;;;;11.73;70.90;100052.00;10298322;28;20046;-84
2023/12/26 07:40:42;;;;;;;2.88;0.75;;;;;;;11.75;70.57;100067.94;10302458;28;20469;-84
2023/12/26 07:45:44;;;;;;;2.50;0.50;;;;;;;11.71;70.55;100073.72;10287329;28;20447;-84
2023/12/26 07:50:45;;;;;;;3.92;0.40;;;;;;;11.74;70.92;100082.44;10287458;28;20086;-84
2023/12/26 07:55:47;;;;;;;4.30;0.43;;;;;;;11.76;70.50;100078.53;10292750;28;20058;-85
2023/12/26 08:00:48;;;;;;;4.05;0.40;;;;;;;11.75;70.36;100101.09;10292749;28;20117;-86
2023/12/26 08:05:50;;;;;;;7.57;1.00;;;;;;;11.78;70.42;100095.31;10291329;28;20058;-85
2023/12/26 08:10:51;;;;;;;7.47;0.52;;;;;;;11.79;70.17;100098.84;10297960;28;20663;-85
2023/12/26 08:15:53;;;;;;;3.58;0.70;;;;;;;11.83;69.89;100105.53;10292150;28;20050;-85
2023/12/26 08:20:54;;;;;;;2.05;0.35;;;;;;;11.83;69.93;100124.41;10265321;28;20136;-85
2023/12/26 08:25:56;;;;;;;3.67;1.02;;;;;;;11.85;69.70;100127.72;10273166;28;20070;-85
2023/12/26 08:30:57;;;;;;;2.72;0.45;;;;;;;11.79;69.81;100121.25;10277890;28;20386;-86
2023/12/26 08:35:59;;;;;;;6.50;0.65;;;;;;;11.77;70.31;100114.34;10289573;28;20049;-86
2023/12/26 08:41:01;;;;;;;2.72;0.40;;;;;;;11.70;70.35;100119.66;10268419;28;20086;-87
2023/12/26 08:46:02;;;;;;;3.63;0.50;;;;;;;11.71;70.17;100135.66;10287087;28;20436;-87
2023/12/26 08:51:04;;;;;;;5.10;0.30;;;;;;;11.80;70.05;100125.59;10288081;28;20137;-86
2023/12/26 08:56:06;;;;;;;1.98;0.30;;;;;;;11.85;69.85;100130.44;10295327;28;20113;-86
2023/12/26 09:01:09;;;;;;;1.38;0.30;;;;;;;11.87;69.78;100145.34;10273582;28;20046;-86
2023/12/26 09:06:11;;;;;;;5.30;0.40;;;;;;;11.98;69.50;100171.00;10299072;28;20082;-87
2023/12/26 09:11:13;;;;;;;6.38;0.85;;;;;;;12.00;69.75;100185.09;10271564;28;20524;-88
2023/12/26 09:16:16;;;;;;;2.85;0.47;;;;;;;12.06;69.40;100188.91;10295156;28;20110;-88
2023/12/26 09:21:17;;;;;;;3.38;0.30;;;;;;;12.06;69.87;100197.81;10317972;28;20039;-86
2023/12/26 09:31:24;;;;;;;2.47;0.30;;;;;;;11.88;70.48;100233.19;10187723;29;20050;-67
2023/12/26 09:36:25;;;;;;;4.00;0.50;;;;;;;11.96;69.74;100243.06;10151378;29;20044;-71
2023/12/26 09:41:27;;;;;;;5.35;0.40;;;;;;;12.01;70.35;100237.16;10152861;29;20132;-67
2023/12/26 09:46:30;;;;;;;2.08;0.30;;;;;;;12.05;69.97;100223.09;10152525;29;20048;-66
2023/12/26 09:51:34;;;;;;;2.80;0.63;;;;;;;12.20;69.36;100243.78;10134627;29;20043;-69
2023/12/26 09:56:40;;;;;;;0.80;0.20;;;;;;;12.30;69.49;100238.91;10151332;29;21186;-68
2023/12/26 10:01:45;;;;;;;0.65;0.30;;;;;;;12.43;69.30;100227.47;10154633;29;20059;-67
2023/12/26 10:06:47;;;;;;;1.00;0.20;;;;;;;12.52;69.28;100268.59;10151184;29;20048;-69
2023/12/26 10:11:52;;;;;;;3.33;0.30;;;;;;;12.52;69.19;100263.22;10152986;29;20094;-69
2023/12/26 10:16:54;;;;;;;8.25;0.60;;;;;;;12.53;69.20;100257.63;10135233;29;20058;-68
2023/12/26 10:21:56;;;;;;;2.17;0.40;;;;;;;12.57;69.08;100283.19;10154645;29;20051;-69
2023/12/26 10:26:59;;;;;;;2.88;0.60;;;;;;;12.47;69.10;100286.19;10153274;29;20048;-69
2023/12/26 10:32:01;;;;;;;4.10;0.40;;;;;;;12.52;69.39;100298.25;10152426;29;20044;-69
2023/12/26 10:37:04;;;;;;;3.55;0.30;;;;;;;12.54;69.14;100294.38;10151970;29;20052;-67
2023/12/26 10:42:07;;;;;;;1.40;0.35;;;;;;;12.44;69.85;100301.91;10155656;29;20520;-68
2023/12/26 10:47:12;;;;;;;1.63;0.30;;;;;;;12.38;70.08;100294.59;10158450;29;20040;-67
2023/12/26 10:52:13;;;;;;;4.32;0.50;;;;;;;12.43;69.61;100313.72;10142260;29;20044;-68
2023/12/26 10:57:17;;;;;;;2.17;0.35;;;;;;;12.37;69.87;100303.72;10159803;29;20479;-67
2023/12/26 11:02:18;;;;;;;1.52;0.22;;;;;;;12.38;69.56;100292.75;10158148;29;20614;-68
2023/12/26 11:07:21;;;;;;;2.75;0.30;;;;;;;12.44;69.53;100302.75;10198674;29;20052;-68
2023/12/26 11:12:22;;;;;;;2.38;0.40;;;;;;;12.49;69.80;100318.38;10201547;29;20044;-68
2023/12/26 11:17:24;;;;;;;0.98;0.20;;;;;;;12.52;69.50;100307.22;10196544;29;20079;-67
2023/12/26 11:22:25;;;;;;;0.82;0.20;;;;;;;12.57;69.38;100287.75;10183411;29;20114;-68
2023/12/26 11:27:26;;;;;;;1.15;0.20;;;;;;;12.68;68.75;100301.56;10201270;29;20060;-68
2023/12/26 11:32:28;;;;;;;2.33;0.25;;;;;;;13.08;68.32;100303.84;10201724;29;20050;-67
2023/12/26 11:37:30;;;;;;;0.47;0.20;;;;;;;13.17;67.96;100293.72;10199916;29;20184;-66
2023/12/26 11:42:31;;;;;;;1.85;0.30;;;;;;;13.03;68.37;100296.34;10204031;29;20035;-68
2023/12/26 11:47:33;;;;;;;1.13;0.28;;;;;;;12.90;68.18;100315.09;10214053;29;20110;-66
2023/12/26 11:52:35;;;;;;;0.40;0.20;;;;;;;12.80;68.52;100306.47;10200570;29;20462;-67
2023/12/26 11:57:36;;;;;;;0.45;0.10;;;;;;;12.78;68.46;100312.06;10209312;29;20067;-66
2023/12/26 12:02:38;;;;;;;0.73;0.20;;;;;;;12.80;68.05;100325.34;10241189;29;20044;-66
2023/12/26 12:07:40;;;;;;;0.63;0.13;;;;;;;12.78;68.37;100333.63;10240565;28;20044;-67
2023/12/26 12:12:42;;;;;;;2.40;0.20;;;;;;;12.76;68.52;100324.06;10239937;29;20052;-66
2023/12/26 12:17:46;;;;;;;0.52;0.10;;;;;;;12.71;68.30;100324.63;10203698;29;20051;-66
2023/12/26 12:22:48;;;;;;;0.63;0.20;;;;;;;12.77;68.24;100306.84;10194310;29;20048;-66
2023/12/26 12:28:09;;;;;;;0.68;0.22;;;;;;;12.82;68.44;100312.50;10225031;29;20047;-65
2023/12/26 12:33:19;;;;;;;0.30;0.10;;;;;;;12.87;67.81;100305.53;10212373;29;20040;-65
2023/12/26 12:38:21;;;;;;;0.52;0.10;;;;;;;13.01;67.64;100302.94;10228221;29;20055;-66
2023/12/26 12:43:23;;;;;;;0.60;0.28;;;;;;;13.01;67.43;100309.19;10215271;29;20410;-66
2023/12/26 12:48:26;;;;;;;0.40;0.10;;;;;;;12.89;67.53;100322.34;10224599;29;20083;-66
2023/12/26 12:53:28;;;;;;;0.47;0.10;;;;;;;12.83;67.79;100308.78;10230283;29;20053;-65
2023/12/26 12:58:29;;;;;;;0.25;0.25;;;;;;;12.84;67.64;100321.25;10227865;29;20080;-66
2023/12/26 13:03:30;;;;;;;0.40;0.35;;;;;;;12.81;67.35;100324.31;10216033;29;20046;-66
2023/12/26 13:08:32;;;;;;;0.10;0.10;;;;;;;12.73;67.68;100324.44;10233735;29;20040;-67
2023/12/26 13:13:37;;;;;;;0.82;0.10;;;;;;;12.68;66.84;100331.25;10233087;29;20398;-66
2023/12/26 13:18:39;;;;;;;0.30;0.10;;;;;;;12.74;66.92;100350.38;10230020;29;20039;-66
2023/12/26 13:23:43;;;;;;;1.92;0.10;;;;;;;12.83;66.55;100335.75;10230203;29;20555;-66
2023/12/26 13:28:45;;;;;;;0.13;0.08;;;;;;;12.88;66.42;100350.34;10230389;29;20107;-66
2023/12/26 13:33:46;;;;;;;0.32;0.10;;;;;;;12.86;66.56;100371.28;10232339;29;20059;-67
2023/12/26 13:38:48;;;;;;;1.38;0.30;;;;;;;12.83;66.81;100365.41;10233433;29;20079;-66
2023/12/26 13:43:49;;;;;;;1.02;0.10;;;;;;;12.82;66.98;100369.16;10234322;29;20062;-66
2023/12/26 13:48:50;;;;;;;2.75;0.90;;;;;;;12.80;66.51;100368.53;10218340;29;20071;-66
2023/12/26 13:53:52;;;;;;;2.40;0.03;;;;;;;12.73;60.62;100373.00;10229836;29;20051;-67
2023/12/26 13:58:54;;;;;;;2.63;0.15;;;;;;;12.83;59.31;100377.03;10234751;28;20269;-68
2023/12/26 14:03:56;;;;;;;2.85;0.13;;;;;;;12.84;57.13;100394.91;10238350;29;20563;-68
2023/12/26 14:08:58;;;;;;;2.00;0.10;;;;;;;12.79;56.69;100399.19;10237123;29;20086;-67
2023/12/26 14:13:59;;;;;;;1.35;0.10;;;;;;;12.72;56.04;100400.97;10239338;29;20043;-67
2023/12/26 14:19:00;;;;;;;0.68;0.05;;;;;;;12.76;54.37;100411.22;10241838;29;20048;-67
2023/12/26 14:24:02;;;;;;;3.10;0.65;;;;;;;12.76;54.63;100411.22;10243156;29;20051;-66
2023/12/26 14:29:04;;;;;;;3.30;0.17;;;;;;;12.77;54.51;100412.88;10240672;29;20051;-67
2023/12/26 14:34:05;;;;;;;1.65;0.10;;;;;;;12.78;53.49;100416.44;10245147;29;20481;-68
2023/12/26 14:39:07;;;;;;;2.20;0.30;;;;;;;12.79;54.08;100415.38;10250168;28;20063;-66
2023/12/26 14:44:08;;;;;;;2.40;0.40;;;;;;;12.76;53.43;100438.19;10251908;28;20040;-65
2023/12/26 14:49:10;;;;;;;2.17;0.20;;;;;;;12.83;53.26;100436.41;10246937;29;20100;-65
2023/12/26 14:54:15;;;;;;;1.30;0.20;;;;;;;12.90;53.82;100436.50;10239386;29;20054;-66
2023/12/26 14:59:16;;;;;;;1.08;0.13;;;;;;;12.95;53.96;100446.72;10249589;23;20054;-89
2023/12/26 15:04:18;;;;;;;1.55;0.20;;;;;;;12.92;54.23;100447.09;10265597;28;20047;-85
2023/12/26 15:09:19;;;;;;;4.38;0.20;;;;;;;12.87;54.67;100450.34;10271660;28;20454;-86
2023/12/26 15:14:21;;;;;;;3.90;0.63;;;;;;;12.87;54.73;100462.00;10289725;28;20046;-86
2023/12/26 15:19:42;;;;;;;2.15;0.40;;;;;;;12.68;55.05;100473.34;10274237;28;20102;-85
2023/12/26 15:24:45;;;;;;;1.48;0.13;;;;;;;12.63;54.91;100478.47;10252265;28;20047;-87
2023/12/26 15:29:48;;;;;;;0.95;0.10;;;;;;;12.56;54.76;100485.59;10229294;28;21057;-85
2023/12/26 15:34:49;;;;;;;0.75;0.20;;;;;;;12.46;54.72;100502.91;10245935;28;20142;-88
2023/12/26 15:39:51;;;;;;;1.25;0.20;;;;;;;12.46;54.38;100494.84;10244147;28;20055;-87
2023/12/26 15:44:53;;;;;;;3.03;0.10;;;;;;;12.36;55.11;100505.06;10304346;23;20111;-66
2023/12/26 15:49:54;;;;;;;2.58;0.38;;;;;;;12.34;55.08;100500.84;10268102;28;20062;-66
2023/12/26 15:54:56;;;;;;;5.45;0.60;;;;;;;12.23;55.32;100502.16;10283907;28;20035;-66
2023/12/26 15:59:57;;;;;;;1.88;0.45;;;;;;;12.17;55.96;100510.97;10284535;28;20401;-66
2023/12/26 16:04:59;;;;;;;4.20;0.32;;;;;;;11.99;56.26;100522.91;10286028;28;20038;-66
2023/12/26 16:10:03;;;;;;;3.60;0.52;;;;;;;11.93;56.54;100523.63;10247957;28;20111;-61
2023/12/26 16:15:05;;;;;;;4.32;0.25;;;;;;;11.84;56.38;100541.66;10233107;28;20047;-60
2023/12/26 16:20:07;;;;;;;2.03;0.30;;;;;;;11.73;56.77;100542.09;10227873;28;20050;-60
2023/12/26 16:25:09;;;;;;;8.27;0.85;;;;;;;11.62;56.80;100548.72;10229668;28;20047;-59
2023/12/26 16:30:11;;;;;;;1.90;0.32;;;;;;;11.58;56.60;100563.53;10232561;28;20062;-59
2023/12/26 16:35:13;;;;;;;5.07;0.50;;;;;;;11.49;56.79;100561.91;10217300;28;20429;-60
2023/12/26 16:40:14;;;;;;;2.85;0.43;;;;;;;11.43;56.88;100589.53;10194876;29;20454;-60
2023/12/26 16:45:17;;;;;;;5.45;0.20;;;;;;;11.45;55.86;100584.81;10182767;29;20169;-62
2023/12/26 16:50:19;;;;;;;1.35;0.20;;;;;;;11.43;55.98;100595.78;10209896;29;20062;-62
2023/12/26 16:55:20;;;;;;;3.00;0.22;;;;;;;11.36;55.78;100621.69;10186932;29;20121;-63
2023/12/26 17:00:22;;;;;;;2.35;0.20;;;;;;;11.31;54.89;100632.13;10199892;29;20044;-62
2023/12/26 17:05:23;;;;;;;2.15;0.30;;;;;;;11.28;54.84;100643.28;10201774;29;20114;-59
2023/12/26 17:10:25;;;;;;;2.78;0.20;;;;;;;11.25;54.46;100646.28;10201136;29;20146;-59
2023/12/26 17:15:26;;;;;;;0.98;0.43;;;;;;;11.18;55.06;100656.09;10184941;29;20310;-60
2023/12/26 17:20:28;;;;;;;4.28;0.20;;;;;;;11.15;54.69;100662.63;10196133;29;20047;-58
2023/12/26 17:25:31;;;;;;;4.05;0.40;;;;;;;11.10;54.49;100656.94;10194773;29;20046;-60
2023/12/26 17:30:33;;;;;;;5.20;0.40;;;;;;;11.03;54.72;100658.63;10179860;29;20055;-60
2023/12/26 17:35:34;;;;;;;6.20;0.50;;;;;;;10.98;54.54;100680.69;10202671;29;20052;-60
2023/12/26 17:40:36;;;;;;;8.20;0.77;;;;;;;10.97;54.62;100686.22;10192309;29;20043;-62
2023/12/26 17:45:37;;;;;;;2.83;0.40;;;;;;;10.87;54.82;100710.59;10176737;29;20573;-61
2023/12/26 17:50:39;;;;;;;4.50;0.63;;;;;;;10.79;55.41;100724.88;10204006;23;20479;-64
2023/12/26 17:55:41;;;;;;;3.00;0.88;;;;;;;10.75;55.22;100726.22;10228956;29;20047;-65
2023/12/26 18:00:42;;;;;;;2.97;0.20;;;;;;;10.67;55.20;100727.06;10245756;29;20070;-63
2023/12/26 18:05:44;;;;;;;3.80;0.32;;;;;;;10.66;55.00;100743.34;10197171;28;20062;-65
2023/12/26 18:10:45;;;;;;;5.22;0.30;;;;;;;10.62;55.26;100742.00;10249673;28;20051;-66
2023/12/26 18:15:47;;;;;;;7.85;0.90;;;;;;;10.56;55.17;100746.19;10255733;28;20047;-66
2023/12/26 18:20:48;;;;;;;4.85;0.38;;;;;;;10.54;55.30;100752.75;10239960;29;20050;-66
2023/12/26 18:25:50;;;;;;;3.95;0.30;;;;;;;10.47;55.85;100769.56;10233549;28;20059;-65
2023/12/26 18:30:52;;;;;;;4.07;0.43;;;;;;;10.41;55.49;100767.53;10242969;28;20050;-66
2023/12/26 18:35:54;;;;;;;1.90;0.40;;;;;;;10.36;55.52;100769.84;10195599;29;20251;-66
2023/12/26 18:40:56;;;;;;;4.43;0.45;;;;;;;10.43;55.90;100770.06;10240992;28;20079;-66
2023/12/26 18:45:57;;;;;;;6.28;1.15;;;;;;;10.39;55.55;100760.66;10235285;29;20059;-67
2023/12/26 18:50:59;;;;;;;8.32;1.38;;;;;;;10.26;56.18;100778.03;10249515;28;20047;-66
2023/12/26 18:56:00;;;;;;;4.88;0.50;;;;;;;10.24;55.71;100780.03;10242471;28;20051;-66
2023/12/26 19:01:02;;;;;;;4.07;0.40;;;;;;;10.21;56.21;100777.69;10284431;28;20063;-65
2023/12/26 19:06:04;;;;;;;5.95;0.55;;;;;;;10.14;56.33;100782.03;10270433;28;20061;-65
2023/12/26 19:11:06;;;;;;;2.78;0.50;;;;;;;10.02;56.50;100796.75;10255360;28;20051;-65
2023/12/26 19:16:08;;;;;;;4.75;0.47;;;;;;;9.85;56.78;100801.19;10258463;29;20082;-65
2023/12/26 19:21:10;;;;;;;5.57;1.02;;;;;;;9.73;56.92;100806.84;10258042;28;20110;-67
2023/12/26 19:26:12;;;;;;;8.27;1.48;;;;;;;9.56;57.30;100812.25;10271155;29;20051;-68
2023/12/26 19:31:14;;;;;;;4.32;0.70;;;;;;;9.39;57.75;100812.16;10234506;29;20039;-66
2023/12/26 19:36:17;;;;;;;7.18;0.60;;;;;;;9.33;57.69;100832.41;10249668;29;20063;-64
2023/12/26 19:41:18;;;;;;;11.82;1.05;;;;;;;9.27;58.06;100840.25;10222885;29;20151;-64
2023/12/26 19:46:20;;;;;;;4.63;0.73;;;;;;;9.15;58.84;100836.97;10229021;28;20419;-64
2023/12/26 19:51:21;;;;;;;6.57;1.45;;;;;;;9.32;58.48;100849.50;10214539;29;20063;-64
2023/12/26 19:56:23;;;;;;;10.20;1.38;;;;;;;9.29;58.61;100844.44;10234788;28;20050;-64
2023/12/26 20:01:25;;;;;;;4.50;0.73;;;;;;;9.34;58.83;100844.00;10234717;28;20062;-67
2023/12/26 20:06:26;;;;;;;11.40;2.80;;;;;;;9.34;59.21;100852.06;10238715;29;20373;-66
2023/12/26 20:11:28;;;;;;;4.63;1.25;;;;;;;9.37;59.00;100859.78;10238035;28;20049;-66
2023/12/26 20:16:29;;;;;;;5.50;1.20;;;;;;;9.49;58.89;100874.63;10235839;28;20058;-64
2023/12/26 20:21:31;;;;;;;10.60;0.90;;;;;;;9.50;58.79;100878.16;10238172;28;20051;-66
2023/12/26 20:26:33;;;;;;;2.72;0.70;;;;;;;9.46;59.07;100874.94;10238863;29;20110;-64
2023/12/26 20:31:34;;;;;;;2.92;0.60;;;;;;;9.46;59.29;100883.00;10236887;28;20106;-63
2023/12/26 20:36:43;;;;;;;3.47;0.68;;;;;;;9.54;59.20;100892.94;10411117;28;20372;-63
2023/12/26 20:41:47;;;;;;;7.93;1.08;;;;;;;9.59;59.02;100908.56;10462773;28;20738;-63
2023/12/26 20:46:50;;;;;;;5.68;0.77;;;;;;;9.65;58.97;100905.28;10459192;28;20075;-65
2023/12/26 20:51:52;;;;;;;3.67;1.40;;;;;;;9.63;59.13;100926.88;10463435;28;20128;-65
2023/12/26 20:56:58;;;;;;;2.47;0.52;;;;;;;9.71;59.03;100926.94;10464260;28;20099;-65
2023/12/26 21:01:59;;;;;;;8.00;2.05;;;;;;;9.86;58.75;100913.81;10461360;28;20132;-65
2023/12/26 21:07:01;;;;;;;2.63;0.93;;;;;;;9.95;58.68;100903.13;10462665;28;20479;-65
2023/12/26 21:12:03;;;;;;;4.68;0.80;;;;;;;10.03;58.65;100901.34;10460320;28;20469;-65
2023/12/26 21:17:06;;;;;;;6.63;1.08;;;;;;;9.96;59.23;100902.97;10458537;28;20463;-65
2023/12/26 21:22:08;;;;;;;11.15;1.83;;;;;;;9.92;59.50;100904.28;10457985;28;20072;-64
2023/12/26 21:27:09;;;;;;;6.28;0.77;;;;;;;9.99;59.57;100908.03;10461363;28;20055;-65
2023/12/26 21:32:11;;;;;;;7.05;1.00;;;;;;;9.89;59.60;100909.97;10459152;28;20048;-65
2023/12/26 21:37:12;;;;;;;7.20;0.50;;;;;;;9.85;60.04;100914.84;10459611;28;20053;-65
2023/12/26 21:42:13;;;;;;;6.63;1.05;;;;;;;9.75;60.07;100924.81;10468316;28;20041;-66
2023/12/26 21:47:17;;;;;;;8.18;1.02;;;;;;;9.82;59.78;100925.03;10436692;28;20413;-66
2023/12/26 21:52:19;;;;;;;3.08;0.93;;;;;;;9.80;60.04;100938.63;10429424;28;20049;-66
2023/12/26 21:57:20;;;;;;;8.80;0.90;;;;;;;9.65;60.25;100946.38;10430534;28;20148;-65
2023/12/26 22:02:22;;;;;;;6.95;1.58;;;;;;;9.55;60.19;100945.63;10433257;28;20037;-66
2023/12/26 22:07:23;;;;;;;5.80;0.93;;;;;;;9.40;60.43;100928.38;10432337;28;20048;-65
2023/12/26 22:12:26;;;;;;;5.43;1.73;;;;;;;9.18;60.78;100929.69;10430823;28;20037;-66
2023/12/26 22:17:27;;;;;;;5.68;1.92;;;;;;;8.95;61.27;100942.69;10433111;28;20043;-65
2023/12/26 22:22:29;;;;;;;9.48;1.50;;;;;;;8.75;61.20;100942.81;10437145;28;20069;-66
2023/12/26 22:27:30;;;;;;;7.88;1.90;;;;;;;8.54;61.67;100949.25;10440966;28;20072;-65
2023/12/26 22:32:32;;;;;;;6.03;2.00;;;;;;;8.23;62.37;100955.81;10438340;28;20074;-66
2023/12/26 22:37:34;;;;;;;6.88;1.38;;;;;;;8.08;62.53;100948.25;10433807;28;20045;-66
2023/12/26 22:42:35;;;;;;;9.25;1.10;;;;;;;7.80;62.71;100962.53;10434925;28;20045;-65
2023/12/26 22:47:39;;;;;;;11.32;2.58;;;;;;;7.70;63.03;100963.41;10425920;28;20049;-65
2023/12/26 22:52:41;;;;;;;8.27;1.40;;;;;;;7.55;63.67;100965.66;10429206;28;20050;-64
2023/12/26 22:57:42;;;;;;;5.60;1.20;;;;;;;7.45;63.13;100967.47;10427740;28;20042;-65
2023/12/26 23:02:44;;;;;;;7.85;1.48;;;;;;;7.32;63.81;100965.06;10438935;28;20040;-65
2023/12/26 23:07:45;;;;;;;11.02;1.88;;;;;;;7.25;64.31;100974.66;10447148;28;20401;-66
2023/12/26 23:12:47;;;;;;;9.75;2.20;;;;;;;7.24;64.13;100975.63;10441775;28;20109;-65
2023/12/26 23:17:48;;;;;;;7.22;2.65;;;;;;;7.07;64.65;100981.63;10436631;28;20045;-65
2023/12/26 23:22:50;;;;;;;6.28;1.73;;;;;;;6.97;64.91;100973.63;10435889;28;20068;-66